Latest Weather Observations for Roseworthy

IDS60801

Issued at 9:01 pm CDT Monday 16 January 2017 (issued every 30 minutes, with the page automatically refreshed every 10 minutes)

About weather observations | Map of weather stations | Latest weather observations for SA | Other Formats
Station Details ID: 023122 Name: ROSEWORTHY AWS Lat: -34.51 Lon: 138.68 Height: 65.0 m
Data from the previous 72 hours. | See also: Recent months at Roseworthy
Date/Time
CDT
Temp
°C
App
Temp
°C
Dew
Point
°C
Rel
Hum
%
Delta-T
°C
Wind Press
QNH
hPa
Press
MSL
hPa
Rain since
9am
mm
Dir  Spd
km/h
Gust
km/h
Spd
kts
Gust
kts
16/09:00pm 24.1 23.7 8.1 36 8.5 CALM 0 2 0 1 1008.8 - -
16/08:51pm 23.7 21.9 7.8 36 8.4 ESE 7 9 4 5 1008.8 1008.5 0.0
16/08:30pm 28.7 26.2 4.9 22 12.3 SE 7 9 4 5 1008.8 1008.5 0.0
16/08:00pm 31.7 28.6 3.7 17 14.4 SSE 9 13 5 7 1008.8 1008.5 0.0
16/07:30pm 33.5 29.2 3.3 15 15.7 SSE 15 19 8 10 1008.6 1008.3 0.0
16/07:00pm 34.1 29.7 2.8 14 16.1 S 15 22 8 12 1008.6 1008.3 0.0
16/06:30pm 34.8 29.9 2.3 13 16.7 SSW 17 24 9 13 1008.5 1008.2 0.0
16/06:00pm 35.7 31.6 4.1 14 16.8 SSW 15 24 8 13 1008.6 1008.3 0.0
16/05:30pm 35.4 31.0 2.8 13 17.0 WSW 15 20 8 11 1008.7 1008.4 0.0
16/05:00pm 35.9 32.0 3.2 13 17.1 WSW 13 20 7 11 1009.0 1008.7 0.0
16/04:30pm 36.4 31.2 2.5 12 17.6 WSW 19 26 10 14 1009.3 1009.0 0.0
16/04:00pm 36.3 32.6 4.6 14 17.0 WSW 13 22 7 12 1009.4 1009.1 0.0
16/03:30pm 34.8 31.9 4.4 15 16.2 SSW 9 20 5 11 1009.5 1009.2 0.0
16/03:00pm 35.2 31.4 3.7 14 16.6 WSW 13 24 7 13 1009.9 1009.6 0.0
16/02:30pm 35.1 29.9 3.6 14 16.6 WSW 20 32 11 17 1010.3 1010.1 0.0
16/02:00pm 34.4 30.6 4.0 15 16.0 W 13 20 7 11 1010.7 1010.5 0.0
16/01:30pm 34.4 29.1 3.1 14 16.2 W 20 30 11 16 1010.9 1010.7 0.0
16/01:00pm 34.3 29.6 3.0 14 16.2 WNW 17 30 9 16 1011.4 1011.2 0.0
16/12:30pm 33.1 28.0 3.0 15 15.5 W 19 30 10 16 1011.6 1011.4 0.0
16/12:00pm 32.4 27.7 5.1 18 14.5 NW 19 28 10 15 1011.8 1011.6 0.0
16/11:30am 31.6 26.7 5.2 19 13.9 NNW 20 30 11 16 1012.2 1012.0 0.0
16/11:00am 31.1 26.1 4.8 19 13.8 NW 20 35 11 19 1012.4 1012.2 0.0
16/10:30am 30.9 25.7 5.3 20 13.5 NNW 22 43 12 23 1012.6 1012.4 0.0
16/10:00am 29.7 24.2 5.7 22 12.6 N 24 30 13 16 1012.9 1012.7 0.0
16/09:30am 27.7 23.1 8.1 29 10.6 NNE 22 28 12 15 1013.0 1012.8 0.0
16/09:00am 25.0 20.8 9.7 38 8.4 NE 22 30 12 16 1013.2 1013.0 0.0
16/08:30am 22.0 16.8 10.2 47 6.4 NE 28 37 15 20 1013.2 1013.0 0.0
16/08:00am 19.5 14.5 10.8 57 4.7 NE 28 39 15 21 1013.1 1012.9 0.0
16/07:30am 18.2 12.8 10.8 62 4.0 NE 30 43 16 23 1013.1 1012.9 0.0
16/07:00am 16.6 12.7 10.9 69 3.1 NE 22 32 12 17 1013.2 1013.0 0.0
16/06:30am 15.3 12.8 10.9 75 2.3 NE 15 20 8 11 1013.1 1012.9 0.0
16/06:00am 14.1 11.5 10.7 80 1.8 NE 15 17 8 9 1013.0 1012.8 0.0
16/05:30am 14.5 12.5 10.1 75 2.3 ENE 11 13 6 7 1012.9 1012.7 0.0
16/05:00am 15.7 14.2 10.5 71 2.8 ENE 9 11 5 6 1012.6 1012.4 0.0
16/04:30am 15.2 14.3 10.6 74 2.4 N 6 9 3 5 1012.6 1012.4 0.0
16/04:00am 15.7 14.3 10.9 73 2.6 ENE 9 13 5 7 1012.6 1012.4 0.0
16/03:30am 16.4 14.6 10.7 69 3.0 E 11 15 6 8 1012.7 1012.5 0.0
16/03:00am 16.5 14.4 11.0 70 3.0 E 13 15 7 8 1012.9 1012.7 0.0
16/02:30am 16.4 13.9 11.1 71 2.9 ENE 15 19 8 10 1013.0 1012.8 0.0
16/02:00am 15.7 14.7 10.9 73 2.6 ENE 7 11 4 6 1013.3 1013.1 0.0
16/01:30am 16.4 14.1 11.6 73 2.6 ENE 15 17 8 9 1013.3 1013.1 0.0
16/01:00am 15.8 13.4 11.4 75 2.4 ENE 15 17 8 9 1013.6 1013.3 0.0
16/12:30am 16.4 14.7 11.3 72 2.8 E 11 15 6 8 1013.7 1013.4 0.0
16/12:00am 16.7 15.8 11.4 71 2.9 E 7 11 4 6 1013.7 1013.4 0.0
 
Date/Time
CDT
Temp
°C
App
Temp
°C
Dew
Point
°C
Rel
Hum
%
Delta-T
°C
Wind Press
QNH
hPa
Press
MSL
hPa
Rain since
9am
mm
Dir  Spd
km/h
Gust
km/h
Spd
kts
Gust
kts
15/11:30pm 17.3 15.8 12.0 71 2.9 ESE 11 13 6 7 1013.7 1013.4 0.0
15/11:00pm 17.1 16.0 12.0 72 2.8 ESE 9 11 5 6 1014.1 1013.8 0.0
15/10:30pm 17.2 16.1 11.9 71 2.9 E 9 9 5 5 1014.2 1013.9 0.0
15/10:00pm 18.0 17.5 12.0 68 3.3 ESE 6 7 3 4 1014.1 1013.8 0.0
15/09:30pm 18.6 18.8 14.1 75 2.6 ESE 6 7 3 4 1014.2 1013.9 0.0
15/09:00pm 20.6 22.0 14.3 67 3.7 CALM 0 2 0 1 1014.2 1013.9 0.0
15/08:30pm 21.9 21.6 14.3 62 4.5 SSW 9 11 5 6 1014.3 1014.0 0.0
15/08:00pm 23.5 22.4 14.2 56 5.5 SW 13 17 7 9 1014.2 1013.9 0.0
15/07:30pm 24.4 22.7 14.8 55 5.7 SSW 17 20 9 11 1014.1 1013.8 0.0
15/07:00pm 24.6 22.4 14.4 53 6.1 SSW 19 26 10 14 1014.1 1013.8 0.0
15/06:30pm 25.0 22.3 14.5 52 6.3 SSW 22 28 12 15 1014.2 1013.9 0.0
15/06:00pm 25.3 22.5 14.4 50 6.5 SSW 22 28 12 15 1014.4 1014.1 0.0
15/05:30pm 26.0 23.3 13.5 46 7.4 SSW 20 26 11 14 1014.6 1014.3 0.0
15/05:00pm 26.1 23.0 12.2 42 8.0 SSW 20 28 11 15 1014.9 1014.6 0.0
15/04:30pm 26.5 22.9 12.9 43 7.9 SSW 24 30 13 16 1015.1 1014.8 0.0
15/04:00pm 27.3 23.8 12.1 39 8.8 SSW 22 30 12 16 1015.4 1015.1 0.0
15/03:30pm 28.0 24.8 11.1 35 9.7 SSW 19 28 10 15 1015.6 1015.3 0.0
15/03:00pm 27.9 25.9 8.7 30 10.5 SE 9 19 5 10 1016.1 1015.8 0.0
15/02:30pm 27.2 24.9 7.6 29 10.5 SE 9 17 5 9 1016.6 1016.3 0.0
15/02:00pm 25.8 23.7 8.3 33 9.4 SW 9 15 5 8 1016.9 1016.6 0.0
15/01:30pm 25.4 23.3 8.4 34 9.1 E 9 15 5 8 1017.3 1017.0 0.0
15/01:00pm 24.3 21.9 8.7 37 8.4 E 11 15 6 8 1017.8 1017.5 0.0
15/12:30pm 24.1 22.8 11.1 44 7.3 SSE 9 17 5 9 1018.0 1017.7 0.0
15/12:00pm 22.5 20.3 9.3 43 7.1 ESE 11 19 6 10 1018.3 1018.0 0.0
15/11:30am 22.1 19.7 9.9 46 6.6 ESE 13 19 7 10 1018.6 1018.3 0.0
15/11:00am 20.8 18.7 9.7 49 6.0 SE 11 15 6 8 1019.2 1018.9 0.0
15/10:30am 19.8 18.0 9.4 51 5.5 NNE 9 17 5 9 1019.6 1019.3 0.0
15/10:00am 18.7 17.8 9.2 54 5.0 E 4 9 2 5 1020.0 1019.7 0.0
15/09:30am 18.4 16.8 10.3 59 4.3 ENE 9 17 5 9 1020.0 1019.7 0.0
15/09:00am 17.8 16.1 11.1 65 3.6 ESE 11 17 6 9 1020.0 1019.7 0.0
15/08:30am 17.1 15.4 11.2 68 3.2 E 11 17 6 9 1019.8 1019.5 0.0
15/08:00am 16.2 14.9 11.4 73 2.6 E 9 13 5 7 1019.5 1019.2 0.0
15/07:30am 14.7 13.7 11.1 79 1.9 ESE 7 11 4 6 1019.5 1019.2 0.0
15/07:00am 13.1 12.0 10.6 85 1.3 ESE 7 11 4 6 1019.1 1018.8 0.0
15/06:30am 11.8 10.4 9.7 87 1.1 ESE 7 9 4 5 1018.9 1018.6 0.0
15/06:00am 10.7 9.1 8.8 88 0.9 ENE 7 11 4 6 1018.4 1018.1 0.0
15/05:30am 10.7 9.2 8.5 86 1.1 E 6 7 3 4 1018.4 1018.1 0.0
15/05:00am 11.3 9.4 9.2 87 1.1 NE 9 13 5 7 1018.3 1018.0 0.0
15/04:30am 11.5 10.0 9.2 86 1.2 ENE 7 9 4 5 1017.8 1017.5 0.0
15/04:00am 11.5 9.7 9.4 87 1.1 E 9 11 5 6 1017.3 1017.0 0.0
15/03:30am 11.3 9.4 9.2 87 1.1 NE 9 11 5 6 1017.4 1017.1 0.0
15/03:00am 11.7 9.6 9.8 88 1.0 NE 11 13 6 7 1017.6 1017.3 0.0
15/02:30am 12.3 11.1 10.2 87 1.1 NE 7 9 4 5 1017.9 1017.6 0.0
15/02:00am 11.8 11.8 9.9 88 1.0 CALM 0 0 0 0 1017.9 1017.6 0.0
15/01:30am 11.8 10.6 9.4 85 1.2 ESE 6 7 3 4 1017.9 1017.6 0.0
15/01:00am 12.6 11.2 9.6 82 1.5 SE 7 9 4 5 1018.0 1017.7 0.0
15/12:30am 12.7 11.5 9.5 81 1.6 E 6 7 3 4 1018.3 1018.0 0.0
15/12:00am 14.1 12.8 10.1 77 2.1 SSE 7 9 4 5 1018.0 1017.7 0.0
 
Date/Time
CDT
Temp
°C
App
Temp
°C
Dew
Point
°C
Rel
Hum
%
Delta-T
°C
Wind Press
QNH
hPa
Press
MSL
hPa
Rain since
9am
mm
Dir  Spd
km/h
Gust
km/h
Spd
kts
Gust
kts
14/11:30pm 14.4 13.2 10.2 76 2.2 SSE 7 11 4 6 1018.0 1017.7 0.0
14/11:00pm 15.3 14.0 10.1 71 2.7 SSE 7 11 4 6 1018.1 1017.8 0.0
14/10:30pm 16.2 14.2 10.3 68 3.1 SE 11 17 6 9 1017.9 1017.6 0.0
14/10:00pm 16.8 15.0 10.9 68 3.2 SSE 11 17 6 9 1017.7 1017.4 0.0
14/09:30pm 17.2 14.7 11.0 67 3.3 SSW 15 20 8 11 1017.3 1017.0 0.0
14/09:00pm 17.9 14.6 10.8 63 3.8 SSW 19 26 10 14 1017.2 1016.9 0.0
14/08:30pm 18.4 14.8 10.5 60 4.2 SSW 20 30 11 16 1017.0 1016.7 0.0
14/08:00pm 19.4 15.3 10.1 55 5.0 SW 22 33 12 18 1016.7 1016.4 0.0
14/07:30pm 20.1 15.2 9.9 52 5.5 SSW 26 33 14 18 1016.4 1016.1 0.0
14/07:00pm 20.9 15.8 10.7 52 5.6 SW 28 35 15 19 1016.2 1015.9 0.0
14/06:30pm 21.2 16.0 10.1 49 6.0 SW 28 37 15 20 1016.2 1015.9 0.0
14/06:00pm 21.8 17.3 10.0 47 6.4 SW 24 35 13 19 1016.1 1015.8 0.0
14/05:30pm 21.8 17.4 10.3 48 6.3 SW 24 35 13 19 1015.9 1015.6 0.0
14/05:00pm 22.2 17.2 11.0 49 6.2 WSW 28 41 15 22 1016.2 1015.9 0.0
14/04:30pm 22.7 18.3 10.5 46 6.7 SW 24 33 13 18 1016.3 1016.0 0.0
14/04:00pm 21.8 17.7 10.0 47 6.4 SW 22 32 12 17 1016.4 1016.1 0.0
14/03:30pm 21.9 18.1 9.8 46 6.5 SW 20 32 11 17 1016.4 1016.1 0.0
14/03:00pm 21.9 17.9 9.1 44 6.8 SW 20 32 11 17 1016.3 1016.0 0.0
14/02:30pm 22.0 17.8 9.9 46 6.6 SSW 22 39 12 21 1016.2 1015.9 0.0
14/02:00pm 21.8 17.5 10.6 49 6.2 SW 24 33 13 18 1016.1 1015.8 0.0
14/01:30pm 22.2 18.2 9.0 43 7.1 SSW 20 30 11 16 1016.1 1015.8 0.0
14/01:00pm 22.2 18.1 10.0 46 6.6 SW 22 33 12 18 1016.1 1015.8 0.0
14/12:30pm 20.6 16.3 10.7 53 5.4 SW 24 33 13 18 1016.3 1016.0 0.0
14/12:00pm 20.4 15.4 9.6 50 5.8 WSW 26 33 14 18 1016.2 1015.9 0.0
14/11:30am 20.3 15.4 8.3 46 6.3 SW 24 32 13 17 1016.0 1015.7 0.0
14/11:00am 19.4 14.2 9.0 51 5.5 SW 26 33 14 18 1015.9 1015.6 0.0
14/10:30am 19.1 14.0 9.3 53 5.2 SW 26 35 14 19 1015.5 1015.2 0.0
14/10:00am 18.6 14.7 9.4 55 4.9 SW 20 28 11 15 1015.2 1014.9 0.0
14/09:30am 18.3 12.2 9.9 58 4.5 SSW 32 41 17 22 1014.9 1014.6 0.0
14/09:00am 18.3 13.9 10.4 60 4.2 SW 24 37 13 20 1014.7 1014.4 10.0
14/08:30am 18.1 14.5 10.7 62 4.0 SW 20 28 11 15 1014.4 1014.1 10.0
14/08:00am 17.8 14.3 10.2 61 4.1 SW 19 26 10 14 1014.0 1013.7 10.0
14/07:30am 17.5 14.2 11.5 68 3.3 WSW 20 26 11 14 1013.6 1013.3 10.0
14/07:00am 17.2 13.1 11.5 69 3.1 SW 24 32 13 17 1013.0 1012.8 10.0
14/06:30am 17.4 13.7 10.1 62 3.9 WSW 20 28 11 15 1012.6 1012.4 10.0
14/06:00am 17.3 13.4 10.7 65 3.5 WSW 22 33 12 18 1012.6 1012.4 10.0
14/05:30am 17.2 13.3 10.8 66 3.4 WSW 22 28 12 15 1012.3 1012.1 10.0
14/05:00am 16.6 13.6 10.7 68 3.2 W 17 24 9 13 1012.1 1011.9 10.0
14/04:30am 16.5 13.5 10.8 69 3.1 WSW 17 26 9 14 1011.9 1011.7 10.0
14/04:00am 16.4 12.7 10.0 66 3.4 WSW 20 28 11 15 1011.5 1011.3 10.0
14/03:30am 17.1 13.4 10.2 64 3.7 WSW 20 28 11 15 1011.2 1011.0 10.0
14/03:00am 17.1 13.5 10.0 63 3.8 WSW 19 24 10 13 1011.1 1010.9 10.0
14/02:30am 17.3 13.7 10.7 65 3.5 WSW 20 32 11 17 1011.2 1011.0 10.0
14/02:00am 17.4 14.2 11.9 70 3.0 WSW 20 28 11 15 1011.3 1011.1 10.0
14/01:30am 15.5 13.1 11.5 77 2.2 W 15 19 8 10 1011.3 1011.1 10.0
14/01:00am 16.1 13.8 11.9 76 2.3 WNW 15 19 8 10 1011.5 1011.3 10.0
14/12:30am 16.1 13.8 11.9 76 2.3 W 15 19 8 10 1011.5 1011.3 10.0
14/12:00am 15.2 13.1 11.2 77 2.1 W 13 17 7 9 1011.5 1011.3 10.0
 
Date/Time
CDT
Temp
°C
App
Temp
°C
Dew
Point
°C
Rel
Hum
%
Delta-T
°C
Wind Press
QNH
hPa
Press
MSL
hPa
Rain since
9am
mm
Dir  Spd
km/h
Gust
km/h
Spd
kts
Gust
kts
13/11:30pm 15.9 13.4 11.1 73 2.6 W 15 19 8 10 1011.4 1011.2 10.0
13/11:00pm 16.5 13.2 10.8 69 3.1 WSW 19 24 10 13 1011.1 1010.9 10.0
13/10:30pm 16.9 13.3 10.7 67 3.3 WSW 20 28 11 15 1010.8 1010.6 10.0
13/10:00pm 17.1 14.4 11.8 71 2.9 WSW 17 24 9 13 1010.3 1010.1 10.0
13/09:30pm 17.7 15.2 12.4 71 2.9 SW 17 22 9 12 1009.9 1009.6 10.0

Other Formats:

Comma delimited format used in spreadsheet applications
http://www.bom.gov.au/fwo/IDS60801/IDS60801.95671.axf

JavaScript Object Notation format (JSON) in row-major order
http://www.bom.gov.au/fwo/IDS60801/IDS60801.95671.json